sensor_id;sensor_type;location;lat;lon;timestamp;P1;durP1;ratioP1;P2;durP2;ratioP2
53594;SDS011;39479;45.720;11.310;2023-08-17T00:00:29;14.13;;;12.88;;
53594;SDS011;39479;45.720;11.310;2023-08-17T00:02:55;14.55;;;12.90;;
53594;SDS011;39479;45.720;11.310;2023-08-17T00:05:21;14.73;;;13.23;;
53594;SDS011;39479;45.720;11.310;2023-08-17T00:07:47;15.13;;;13.48;;
53594;SDS011;39479;45.720;11.310;2023-08-17T00:10:13;14.00;;;12.57;;
53594;SDS011;39479;45.720;11.310;2023-08-17T00:12:39;14.32;;;13.02;;
53594;SDS011;39479;45.720;11.310;2023-08-17T00:15:05;14.52;;;13.10;;
53594;SDS011;39479;45.720;11.310;2023-08-17T00:17:31;14.90;;;13.60;;
53594;SDS011;39479;45.720;11.310;2023-08-17T00:19:57;15.70;;;14.05;;
53594;SDS011;39479;45.720;11.310;2023-08-17T00:22:23;14.15;;;12.77;;
53594;SDS011;39479;45.720;11.310;2023-08-17T00:24:49;16.15;;;14.45;;
53594;SDS011;39479;45.720;11.310;2023-08-17T00:27:15;14.80;;;13.50;;
53594;SDS011;39479;45.720;11.310;2023-08-17T00:29:42;15.15;;;13.65;;
53594;SDS011;39479;45.720;11.310;2023-08-17T00:32:08;17.25;;;13.70;;
53594;SDS011;39479;45.720;11.310;2023-08-17T00:34:34;16.10;;;14.55;;
53594;SDS011;39479;45.720;11.310;2023-08-17T00:37:00;14.60;;;13.35;;
53594;SDS011;39479;45.720;11.310;2023-08-17T00:39:26;16.60;;;14.93;;
53594;SDS011;39479;45.720;11.310;2023-08-17T00:41:52;15.90;;;14.27;;
53594;SDS011;39479;45.720;11.310;2023-08-17T00:44:18;15.63;;;14.18;;
53594;SDS011;39479;45.720;11.310;2023-08-17T00:46:44;15.32;;;13.82;;
53594;SDS011;39479;45.720;11.310;2023-08-17T00:49:10;15.30;;;13.80;;
53594;SDS011;39479;45.720;11.310;2023-08-17T00:51:36;14.93;;;13.52;;
53594;SDS011;39479;45.720;11.310;2023-08-17T00:54:02;15.20;;;13.80;;
53594;SDS011;39479;45.720;11.310;2023-08-17T00:56:29;15.55;;;13.93;;
53594;SDS011;39479;45.720;11.310;2023-08-17T00:58:55;16.33;;;14.18;;
53594;SDS011;39479;45.720;11.310;2023-08-17T01:01:22;15.52;;;14.23;;
53594;SDS011;39479;45.720;11.310;2023-08-17T01:03:48;15.25;;;13.88;;
53594;SDS011;39479;45.720;11.310;2023-08-17T01:06:14;14.93;;;13.52;;
53594;SDS011;39479;45.720;11.310;2023-08-17T01:08:40;15.73;;;14.13;;
53594;SDS011;39479;45.720;11.310;2023-08-17T01:16:08;15.93;;;14.30;;
53594;SDS011;39479;45.720;11.310;2023-08-17T01:18:37;15.90;;;14.30;;
53594;SDS011;39479;45.720;11.310;2023-08-17T01:21:06;15.45;;;14.05;;
53594;SDS011;39479;45.720;11.310;2023-08-17T01:23:33;15.43;;;14.02;;
53594;SDS011;39479;45.720;11.310;2023-08-17T01:25:59;15.90;;;14.30;;
53594;SDS011;39479;45.720;11.310;2023-08-17T01:28:25;16.92;;;15.43;;
53594;SDS011;39479;45.720;11.310;2023-08-17T01:30:57;15.95;;;14.52;;
53594;SDS011;39479;45.720;11.310;2023-08-17T01:38:48;16.58;;;14.88;;
53594;SDS011;39479;45.720;11.310;2023-08-17T01:41:16;15.77;;;14.25;;
53594;SDS011;39479;45.720;11.310;2023-08-17T01:43:43;15.23;;;13.70;;
53594;SDS011;39479;45.720;11.310;2023-08-17T01:46:13;15.32;;;13.90;;
53594;SDS011;39479;45.720;11.310;2023-08-17T01:48:42;17.55;;;15.95;;
53594;SDS011;39479;45.720;11.310;2023-08-17T01:51:08;17.17;;;15.48;;
53594;SDS011;39479;45.720;11.310;2023-08-17T01:53:34;16.40;;;14.88;;
53594;SDS011;39479;45.720;11.310;2023-08-17T01:56:00;15.98;;;14.57;;
53594;SDS011;39479;45.720;11.310;2023-08-17T01:58:26;17.20;;;15.50;;
53594;SDS011;39479;45.720;11.310;2023-08-17T02:00:52;18.10;;;15.95;;
53594;SDS011;39479;45.720;11.310;2023-08-17T02:03:18;16.83;;;15.23;;
53594;SDS011;39479;45.720;11.310;2023-08-17T02:05:45;17.60;;;15.93;;
53594;SDS011;39479;45.720;11.310;2023-08-17T02:08:11;16.88;;;15.30;;
53594;SDS011;39479;45.720;11.310;2023-08-17T02:10:37;16.45;;;14.90;;
53594;SDS011;39479;45.720;11.310;2023-08-17T02:13:03;16.10;;;14.50;;
53594;SDS011;39479;45.720;11.310;2023-08-17T02:15:29;17.38;;;15.68;;
53594;SDS011;39479;45.720;11.310;2023-08-17T02:18:00;17.48;;;15.95;;
53594;SDS011;39479;45.720;11.310;2023-08-17T02:20:26;17.48;;;15.70;;
53594;SDS011;39479;45.720;11.310;2023-08-17T02:22:52;17.10;;;15.32;;
53594;SDS011;39479;45.720;11.310;2023-08-17T02:25:18;17.63;;;15.90;;
53594;SDS011;39479;45.720;11.310;2023-08-17T02:27:44;17.33;;;15.63;;
53594;SDS011;39479;45.720;11.310;2023-08-17T02:30:11;17.85;;;16.05;;
53594;SDS011;39479;45.720;11.310;2023-08-17T02:32:37;17.98;;;16.08;;
53594;SDS011;39479;45.720;11.310;2023-08-17T02:35:03;16.27;;;14.90;;
53594;SDS011;39479;45.720;11.310;2023-08-17T02:37:29;16.67;;;15.10;;
53594;SDS011;39479;45.720;11.310;2023-08-17T02:39:55;17.08;;;15.38;;
53594;SDS011;39479;45.720;11.310;2023-08-17T02:42:21;19.92;;;15.55;;
53594;SDS011;39479;45.720;11.310;2023-08-17T02:44:47;16.95;;;15.45;;
53594;SDS011;39479;45.720;11.310;2023-08-17T02:47:13;16.70;;;15.10;;
53594;SDS011;39479;45.720;11.310;2023-08-17T02:49:39;17.13;;;15.32;;
53594;SDS011;39479;45.720;11.310;2023-08-17T02:52:05;18.52;;;16.63;;
53594;SDS011;39479;45.720;11.310;2023-08-17T02:54:31;17.52;;;16.00;;
53594;SDS011;39479;45.720;11.310;2023-08-17T02:56:58;17.88;;;16.17;;
53594;SDS011;39479;45.720;11.310;2023-08-17T02:59:24;18.70;;;16.73;;
53594;SDS011;39479;45.720;11.310;2023-08-17T03:01:51;18.08;;;16.23;;
53594;SDS011;39479;45.720;11.310;2023-08-17T03:04:17;16.75;;;15.23;;
53594;SDS011;39479;45.720;11.310;2023-08-17T03:06:43;17.05;;;15.35;;
53594;SDS011;39479;45.720;11.310;2023-08-17T03:09:09;15.68;;;14.07;;
53594;SDS011;39479;45.720;11.310;2023-08-17T03:11:35;16.67;;;15.07;;
53594;SDS011;39479;45.720;11.310;2023-08-17T03:14:02;17.02;;;15.25;;
53594;SDS011;39479;45.720;11.310;2023-08-17T03:16:28;17.77;;;16.08;;
53594;SDS011;39479;45.720;11.310;2023-08-17T03:18:57;16.83;;;15.25;;
53594;SDS011;39479;45.720;11.310;2023-08-17T03:21:23;16.58;;;15.10;;
53594;SDS011;39479;45.720;11.310;2023-08-17T03:23:50;16.33;;;14.88;;
53594;SDS011;39479;45.720;11.310;2023-08-17T03:26:16;15.27;;;13.88;;
53594;SDS011;39479;45.720;11.310;2023-08-17T03:28:42;15.52;;;13.98;;
53594;SDS011;39479;45.720;11.310;2023-08-17T03:31:08;15.40;;;13.82;;
53594;SDS011;39479;45.720;11.310;2023-08-17T03:33:35;14.98;;;13.60;;
53594;SDS011;39479;45.720;11.310;2023-08-17T03:36:01;15.98;;;14.40;;
53594;SDS011;39479;45.720;11.310;2023-08-17T03:38:27;15.70;;;14.07;;
53594;SDS011;39479;45.720;11.310;2023-08-17T03:40:53;14.85;;;13.50;;
53594;SDS011;39479;45.720;11.310;2023-08-17T03:43:19;15.68;;;14.07;;
53594;SDS011;39479;45.720;11.310;2023-08-17T03:45:46;16.45;;;14.85;;
53594;SDS011;39479;45.720;11.310;2023-08-17T03:48:12;15.48;;;14.07;;
53594;SDS011;39479;45.720;11.310;2023-08-17T03:50:38;16.70;;;14.93;;
53594;SDS011;39479;45.720;11.310;2023-08-17T03:53:04;17.55;;;16.08;;
53594;SDS011;39479;45.720;11.310;2023-08-17T03:55:30;17.30;;;15.57;;
53594;SDS011;39479;45.720;11.310;2023-08-17T03:57:56;16.83;;;15.32;;
53594;SDS011;39479;45.720;11.310;2023-08-17T04:00:22;16.73;;;15.23;;
53594;SDS011;39479;45.720;11.310;2023-08-17T04:02:48;20.33;;;16.58;;
53594;SDS011;39479;45.720;11.310;2023-08-17T04:05:14;17.20;;;15.45;;
53594;SDS011;39479;45.720;11.310;2023-08-17T04:07:40;17.65;;;16.05;;
53594;SDS011;39479;45.720;11.310;2023-08-17T04:10:06;16.20;;;14.68;;
53594;SDS011;39479;45.720;11.310;2023-08-17T04:12:32;17.05;;;15.45;;
53594;SDS011;39479;45.720;11.310;2023-08-17T04:14:58;17.02;;;15.32;;
53594;SDS011;39479;45.720;11.310;2023-08-17T04:17:24;16.88;;;15.18;;
53594;SDS011;39479;45.720;11.310;2023-08-17T04:19:50;16.50;;;15.00;;
53594;SDS011;39479;45.720;11.310;2023-08-17T04:22:17;16.77;;;15.18;;
53594;SDS011;39479;45.720;11.310;2023-08-17T04:24:43;17.48;;;15.57;;
53594;SDS011;39479;45.720;11.310;2023-08-17T04:27:09;15.98;;;14.55;;
53594;SDS011;39479;45.720;11.310;2023-08-17T04:29:36;16.48;;;14.88;;
53594;SDS011;39479;45.720;11.310;2023-08-17T04:32:02;16.67;;;14.90;;
53594;SDS011;39479;45.720;11.310;2023-08-17T04:34:28;16.25;;;14.52;;
53594;SDS011;39479;45.720;11.310;2023-08-17T04:36:54;16.58;;;14.77;;
53594;SDS011;39479;45.720;11.310;2023-08-17T04:39:20;16.23;;;14.75;;
53594;SDS011;39479;45.720;11.310;2023-08-17T04:41:46;16.88;;;15.38;;
53594;SDS011;39479;45.720;11.310;2023-08-17T04:44:12;16.70;;;15.13;;
53594;SDS011;39479;45.720;11.310;2023-08-17T04:46:38;16.70;;;14.73;;
53594;SDS011;39479;45.720;11.310;2023-08-17T04:49:05;17.15;;;15.35;;
53594;SDS011;39479;45.720;11.310;2023-08-17T04:51:31;17.58;;;15.80;;
53594;SDS011;39479;45.720;11.310;2023-08-17T04:53:57;17.13;;;15.40;;
53594;SDS011;39479;45.720;11.310;2023-08-17T04:56:23;16.38;;;14.85;;
53594;SDS011;39479;45.720;11.310;2023-08-17T04:58:49;16.25;;;14.73;;
53594;SDS011;39479;45.720;11.310;2023-08-17T05:01:15;16.35;;;14.50;;
53594;SDS011;39479;45.720;11.310;2023-08-17T05:03:41;15.07;;;13.55;;
53594;SDS011;39479;45.720;11.310;2023-08-17T05:06:07;14.82;;;13.38;;
53594;SDS011;39479;45.720;11.310;2023-08-17T05:08:33;15.65;;;14.05;;
53594;SDS011;39479;45.720;11.310;2023-08-17T05:10:59;16.98;;;13.70;;
53594;SDS011;39479;45.720;11.310;2023-08-17T05:13:25;13.90;;;12.60;;
53594;SDS011;39479;45.720;11.310;2023-08-17T05:15:51;13.57;;;12.38;;
53594;SDS011;39479;45.720;11.310;2023-08-17T05:18:17;13.45;;;12.18;;
53594;SDS011;39479;45.720;11.310;2023-08-17T05:20:43;13.48;;;12.20;;
53594;SDS011;39479;45.720;11.310;2023-08-17T05:23:09;12.32;;;11.13;;
53594;SDS011;39479;45.720;11.310;2023-08-17T05:25:35;12.15;;;11.13;;
53594;SDS011;39479;45.720;11.310;2023-08-17T05:28:02;12.32;;;10.50;;
53594;SDS011;39479;45.720;11.310;2023-08-17T05:30:28;11.52;;;10.43;;
53594;SDS011;39479;45.720;11.310;2023-08-17T05:32:54;11.45;;;10.43;;
53594;SDS011;39479;45.720;11.310;2023-08-17T05:35:20;11.82;;;10.73;;
53594;SDS011;39479;45.720;11.310;2023-08-17T05:37:46;12.55;;;11.35;;
53594;SDS011;39479;45.720;11.310;2023-08-17T05:40:12;12.27;;;10.98;;
53594;SDS011;39479;45.720;11.310;2023-08-17T05:42:38;12.70;;;11.50;;
53594;SDS011;39479;45.720;11.310;2023-08-17T05:45:04;12.57;;;11.43;;
53594;SDS011;39479;45.720;11.310;2023-08-17T05:47:30;12.85;;;11.57;;
53594;SDS011;39479;45.720;11.310;2023-08-17T05:49:56;12.38;;;11.35;;
53594;SDS011;39479;45.720;11.310;2023-08-17T05:52:22;11.43;;;10.35;;
53594;SDS011;39479;45.720;11.310;2023-08-17T05:54:48;12.80;;;11.63;;
53594;SDS011;39479;45.720;11.310;2023-08-17T05:57:14;11.35;;;10.30;;
53594;SDS011;39479;45.720;11.310;2023-08-17T05:59:40;11.60;;;10.40;;
53594;SDS011;39479;45.720;11.310;2023-08-17T06:02:06;11.00;;;9.98;;
53594;SDS011;39479;45.720;11.310;2023-08-17T06:04:32;10.85;;;9.80;;
53594;SDS011;39479;45.720;11.310;2023-08-17T06:06:58;12.05;;;10.63;;
53594;SDS011;39479;45.720;11.310;2023-08-17T06:09:24;10.32;;;9.43;;
53594;SDS011;39479;45.720;11.310;2023-08-17T06:11:50;10.63;;;9.45;;
53594;SDS011;39479;45.720;11.310;2023-08-17T06:14:16;13.52;;;9.40;;
53594;SDS011;39479;45.720;11.310;2023-08-17T06:16:43;9.30;;;8.55;;
53594;SDS011;39479;45.720;11.310;2023-08-17T06:19:09;8.88;;;8.18;;
53594;SDS011;39479;45.720;11.310;2023-08-17T06:21:35;8.88;;;8.18;;
53594;SDS011;39479;45.720;11.310;2023-08-17T06:24:01;8.80;;;8.00;;
53594;SDS011;39479;45.720;11.310;2023-08-17T06:26:27;9.38;;;8.48;;
53594;SDS011;39479;45.720;11.310;2023-08-17T06:28:53;8.30;;;7.60;;
53594;SDS011;39479;45.720;11.310;2023-08-17T06:31:19;8.73;;;7.72;;
53594;SDS011;39479;45.720;11.310;2023-08-17T06:33:45;8.48;;;7.78;;
53594;SDS011;39479;45.720;11.310;2023-08-17T06:36:11;8.65;;;7.85;;
53594;SDS011;39479;45.720;11.310;2023-08-17T06:38:41;8.30;;;7.60;;
53594;SDS011;39479;45.720;11.310;2023-08-17T06:41:07;11.35;;;9.35;;
53594;SDS011;39479;45.720;11.310;2023-08-17T06:43:33;8.30;;;7.50;;
53594;SDS011;39479;45.720;11.310;2023-08-17T06:45:59;7.90;;;7.20;;
53594;SDS011;39479;45.720;11.310;2023-08-17T06:48:26;8.07;;;7.38;;
53594;SDS011;39479;45.720;11.310;2023-08-17T06:50:52;7.97;;;7.25;;
53594;SDS011;39479;45.720;11.310;2023-08-17T06:53:18;8.35;;;7.40;;
53594;SDS011;39479;45.720;11.310;2023-08-17T06:55:45;8.10;;;7.30;;
53594;SDS011;39479;45.720;11.310;2023-08-17T06:58:11;8.27;;;7.43;;
53594;SDS011;39479;45.720;11.310;2023-08-17T07:00:37;7.90;;;7.20;;
53594;SDS011;39479;45.720;11.310;2023-08-17T07:03:05;7.65;;;7.00;;
53594;SDS011;39479;45.720;11.310;2023-08-17T07:05:31;11.48;;;7.57;;
53594;SDS011;39479;45.720;11.310;2023-08-17T07:07:57;15.45;;;9.05;;
53594;SDS011;39479;45.720;11.310;2023-08-17T07:10:24;8.77;;;6.93;;
53594;SDS011;39479;45.720;11.310;2023-08-17T07:12:50;7.20;;;6.55;;
53594;SDS011;39479;45.720;11.310;2023-08-17T07:15:16;7.63;;;6.93;;
53594;SDS011;39479;45.720;11.310;2023-08-17T07:17:42;8.13;;;7.32;;
53594;SDS011;39479;45.720;11.310;2023-08-17T07:20:08;7.05;;;6.45;;
53594;SDS011;39479;45.720;11.310;2023-08-17T07:22:36;7.30;;;6.70;;
53594;SDS011;39479;45.720;11.310;2023-08-17T07:25:02;8.63;;;7.25;;
53594;SDS011;39479;45.720;11.310;2023-08-17T07:27:28;7.75;;;7.15;;
53594;SDS011;39479;45.720;11.310;2023-08-17T07:29:54;7.00;;;6.40;;
53594;SDS011;39479;45.720;11.310;2023-08-17T07:32:21;8.55;;;6.78;;
53594;SDS011;39479;45.720;11.310;2023-08-17T07:34:47;8.00;;;6.80;;
53594;SDS011;39479;45.720;11.310;2023-08-17T07:37:13;7.25;;;6.53;;
53594;SDS011;39479;45.720;11.310;2023-08-17T07:39:39;6.97;;;6.38;;
53594;SDS011;39479;45.720;11.310;2023-08-17T07:42:05;7.32;;;6.60;;
53594;SDS011;39479;45.720;11.310;2023-08-17T07:44:31;7.30;;;6.68;;
53594;SDS011;39479;45.720;11.310;2023-08-17T07:46:58;6.40;;;5.85;;
53594;SDS011;39479;45.720;11.310;2023-08-17T07:49:24;6.93;;;6.13;;
53594;SDS011;39479;45.720;11.310;2023-08-17T07:51:50;6.47;;;5.97;;
53594;SDS011;39479;45.720;11.310;2023-08-17T07:54:16;7.03;;;6.15;;
53594;SDS011;39479;45.720;11.310;2023-08-17T07:56:42;7.10;;;6.40;;
53594;SDS011;39479;45.720;11.310;2023-08-17T07:59:09;6.53;;;5.95;;
53594;SDS011;39479;45.720;11.310;2023-08-17T08:01:35;6.78;;;6.18;;
53594;SDS011;39479;45.720;11.310;2023-08-17T08:04:01;7.00;;;6.30;;
53594;SDS011;39479;45.720;11.310;2023-08-17T08:06:27;8.30;;;6.47;;
53594;SDS011;39479;45.720;11.310;2023-08-17T08:08:53;6.43;;;5.82;;
53594;SDS011;39479;45.720;11.310;2023-08-17T08:11:21;7.30;;;6.60;;
53594;SDS011;39479;45.720;11.310;2023-08-17T08:13:47;6.55;;;5.95;;
53594;SDS011;39479;45.720;11.310;2023-08-17T08:16:13;6.53;;;6.03;;
53594;SDS011;39479;45.720;11.310;2023-08-17T08:18:39;7.47;;;6.22;;
53594;SDS011;39479;45.720;11.310;2023-08-17T08:21:05;7.38;;;6.68;;
53594;SDS011;39479;45.720;11.310;2023-08-17T08:23:31;7.22;;;6.47;;
53594;SDS011;39479;45.720;11.310;2023-08-17T08:25:57;7.25;;;6.65;;
53594;SDS011;39479;45.720;11.310;2023-08-17T08:28:23;7.93;;;7.03;;
53594;SDS011;39479;45.720;11.310;2023-08-17T08:30:50;8.07;;;7.28;;
53594;SDS011;39479;45.720;11.310;2023-08-17T08:33:16;8.07;;;7.35;;
53594;SDS011;39479;45.720;11.310;2023-08-17T08:35:42;8.52;;;7.72;;
53594;SDS011;39479;45.720;11.310;2023-08-17T08:38:08;8.20;;;7.40;;
53594;SDS011;39479;45.720;11.310;2023-08-17T08:40:35;9.35;;;8.52;;
53594;SDS011;39479;45.720;11.310;2023-08-17T08:43:03;8.07;;;7.38;;
53594;SDS011;39479;45.720;11.310;2023-08-17T08:45:29;8.52;;;7.75;;
53594;SDS011;39479;45.720;11.310;2023-08-17T08:47:56;8.52;;;7.57;;
53594;SDS011;39479;45.720;11.310;2023-08-17T08:50:23;8.05;;;7.35;;
53594;SDS011;39479;45.720;11.310;2023-08-17T08:53:01;7.85;;;7.05;;
53594;SDS011;39479;45.720;11.310;2023-08-17T08:55:33;7.95;;;7.25;;
53594;SDS011;39479;45.720;11.310;2023-08-17T08:58:00;7.60;;;6.90;;
53594;SDS011;39479;45.720;11.310;2023-08-17T09:00:26;8.30;;;7.53;;
53594;SDS011;39479;45.720;11.310;2023-08-17T09:02:53;8.30;;;7.60;;
53594;SDS011;39479;45.720;11.310;2023-08-17T09:05:19;8.88;;;8.07;;
53594;SDS011;39479;45.720;11.310;2023-08-17T09:07:48;8.45;;;7.72;;
53594;SDS011;39479;45.720;11.310;2023-08-17T09:10:15;8.57;;;7.75;;
53594;SDS011;39479;45.720;11.310;2023-08-17T09:12:42;9.25;;;7.50;;
53594;SDS011;39479;45.720;11.310;2023-08-17T09:15:08;8.73;;;7.90;;
53594;SDS011;39479;45.720;11.310;2023-08-17T09:17:34;8.43;;;7.65;;
53594;SDS011;39479;45.720;11.310;2023-08-17T09:20:00;8.15;;;7.38;;
53594;SDS011;39479;45.720;11.310;2023-08-17T09:22:36;8.70;;;7.90;;
53594;SDS011;39479;45.720;11.310;2023-08-17T09:25:03;8.57;;;7.88;;
53594;SDS011;39479;45.720;11.310;2023-08-17T09:27:30;8.35;;;7.55;;
53594;SDS011;39479;45.720;11.310;2023-08-17T09:32:30;8.90;;;8.00;;
53594;SDS011;39479;45.720;11.310;2023-08-17T09:34:57;8.40;;;7.60;;
53594;SDS011;39479;45.720;11.310;2023-08-17T09:37:23;8.95;;;8.15;;
53594;SDS011;39479;45.720;11.310;2023-08-17T09:39:49;9.45;;;8.65;;
53594;SDS011;39479;45.720;11.310;2023-08-17T09:42:15;9.02;;;8.20;;
53594;SDS011;39479;45.720;11.310;2023-08-17T09:44:43;8.65;;;7.80;;
53594;SDS011;39479;45.720;11.310;2023-08-17T09:47:10;9.95;;;8.40;;
53594;SDS011;39479;45.720;11.310;2023-08-17T09:49:36;8.88;;;8.00;;
53594;SDS011;39479;45.720;11.310;2023-08-17T09:52:02;8.43;;;7.72;;
53594;SDS011;39479;45.720;11.310;2023-08-17T09:54:28;9.00;;;8.25;;
53594;SDS011;39479;45.720;11.310;2023-08-17T09:56:57;9.27;;;8.30;;
53594;SDS011;39479;45.720;11.310;2023-08-17T09:59:23;9.00;;;8.07;;
53594;SDS011;39479;45.720;11.310;2023-08-17T10:01:50;9.63;;;8.75;;
53594;SDS011;39479;45.720;11.310;2023-08-17T10:04:20;9.90;;;8.90;;
53594;SDS011;39479;45.720;11.310;2023-08-17T10:06:51;10.55;;;9.02;;
53594;SDS011;39479;45.720;11.310;2023-08-17T10:09:20;9.77;;;8.95;;
53594;SDS011;39479;45.720;11.310;2023-08-17T10:11:49;9.98;;;9.18;;
53594;SDS011;39479;45.720;11.310;2023-08-17T10:14:18;9.60;;;8.77;;
53594;SDS011;39479;45.720;11.310;2023-08-17T10:16:49;9.02;;;8.23;;
53594;SDS011;39479;45.720;11.310;2023-08-17T10:22:08;8.75;;;7.85;;
53594;SDS011;39479;45.720;11.310;2023-08-17T10:24:36;9.73;;;8.82;;
53594;SDS011;39479;45.720;11.310;2023-08-17T10:27:03;9.90;;;9.00;;
53594;SDS011;39479;45.720;11.310;2023-08-17T10:29:30;10.27;;;8.98;;
53594;SDS011;39479;45.720;11.310;2023-08-17T10:31:56;9.63;;;8.73;;
53594;SDS011;39479;45.720;11.310;2023-08-17T10:34:22;9.60;;;8.80;;
53594;SDS011;39479;45.720;11.310;2023-08-17T10:36:49;10.32;;;8.68;;
53594;SDS011;39479;45.720;11.310;2023-08-17T10:39:22;9.50;;;8.60;;
53594;SDS011;39479;45.720;11.310;2023-08-17T10:41:50;10.05;;;8.18;;
53594;SDS011;39479;45.720;11.310;2023-08-17T10:47:10;10.73;;;8.07;;
53594;SDS011;39479;45.720;11.310;2023-08-17T10:49:43;9.48;;;8.63;;
53594;SDS011;39479;45.720;11.310;2023-08-17T10:52:09;9.35;;;8.50;;
53594;SDS011;39479;45.720;11.310;2023-08-17T10:54:36;9.63;;;8.73;;
53594;SDS011;39479;45.720;11.310;2023-08-17T11:00:04;10.07;;;8.98;;
53594;SDS011;39479;45.720;11.310;2023-08-17T11:02:33;9.85;;;8.95;;
53594;SDS011;39479;45.720;11.310;2023-08-17T11:05:02;10.27;;;9.03;;
53594;SDS011;39479;45.720;11.310;2023-08-17T11:07:38;10.02;;;9.02;;
53594;SDS011;39479;45.720;11.310;2023-08-17T11:12:46;10.63;;;9.50;;
53594;SDS011;39479;45.720;11.310;2023-08-17T11:15:13;10.07;;;9.18;;
53594;SDS011;39479;45.720;11.310;2023-08-17T11:17:39;10.68;;;9.07;;
53594;SDS011;39479;45.720;11.310;2023-08-17T11:20:05;9.35;;;8.45;;
53594;SDS011;39479;45.720;11.310;2023-08-17T11:22:33;10.57;;;9.57;;
53594;SDS011;39479;45.720;11.310;2023-08-17T11:25:00;10.45;;;9.35;;
53594;SDS011;39479;45.720;11.310;2023-08-17T11:27:26;10.40;;;9.38;;
53594;SDS011;39479;45.720;11.310;2023-08-17T11:29:55;10.57;;;9.55;;
53594;SDS011;39479;45.720;11.310;2023-08-17T11:32:21;10.00;;;9.20;;
53594;SDS011;39479;45.720;11.310;2023-08-17T11:34:48;10.10;;;9.20;;
53594;SDS011;39479;45.720;11.310;2023-08-17T11:37:15;10.18;;;9.20;;
53594;SDS011;39479;45.720;11.310;2023-08-17T11:39:41;10.73;;;9.73;;
53594;SDS011;39479;45.720;11.310;2023-08-17T11:42:07;10.05;;;9.15;;
53594;SDS011;39479;45.720;11.310;2023-08-17T11:44:34;10.07;;;9.13;;
53594;SDS011;39479;45.720;11.310;2023-08-17T11:47:00;10.10;;;9.20;;
53594;SDS011;39479;45.720;11.310;2023-08-17T11:49:26;10.80;;;9.70;;
53594;SDS011;39479;45.720;11.310;2023-08-17T11:51:52;10.55;;;9.63;;
53594;SDS011;39479;45.720;11.310;2023-08-17T11:54:18;11.50;;;10.50;;
53594;SDS011;39479;45.720;11.310;2023-08-17T11:56:44;11.10;;;9.95;;
53594;SDS011;39479;45.720;11.310;2023-08-17T11:59:10;10.68;;;9.68;;
53594;SDS011;39479;45.720;11.310;2023-08-17T12:01:39;10.70;;;9.70;;
53594;SDS011;39479;45.720;11.310;2023-08-17T12:04:05;13.38;;;10.25;;
53594;SDS011;39479;45.720;11.310;2023-08-17T12:06:31;10.15;;;9.35;;
53594;SDS011;39479;45.720;11.310;2023-08-17T12:08:57;10.30;;;9.30;;
53594;SDS011;39479;45.720;11.310;2023-08-17T12:11:24;11.18;;;10.10;;
53594;SDS011;39479;45.720;11.310;2023-08-17T12:13:53;10.93;;;9.93;;
53594;SDS011;39479;45.720;11.310;2023-08-17T12:16:20;11.15;;;10.05;;
53594;SDS011;39479;45.720;11.310;2023-08-17T12:18:52;10.70;;;9.80;;
53594;SDS011;39479;45.720;11.310;2023-08-17T12:21:22;11.02;;;10.05;;
53594;SDS011;39479;45.720;11.310;2023-08-17T12:23:48;10.90;;;10.00;;
53594;SDS011;39479;45.720;11.310;2023-08-17T12:26:20;11.10;;;10.10;;
53594;SDS011;39479;45.720;11.310;2023-08-17T12:28:47;11.15;;;9.95;;
53594;SDS011;39479;45.720;11.310;2023-08-17T12:31:13;10.80;;;9.90;;
53594;SDS011;39479;45.720;11.310;2023-08-17T12:33:39;10.90;;;9.98;;
53594;SDS011;39479;45.720;11.310;2023-08-17T12:36:05;11.68;;;10.65;;
53594;SDS011;39479;45.720;11.310;2023-08-17T12:38:31;11.20;;;10.23;;
53594;SDS011;39479;45.720;11.310;2023-08-17T12:40:57;12.20;;;11.02;;
53594;SDS011;39479;45.720;11.310;2023-08-17T12:43:23;11.88;;;10.77;;
53594;SDS011;39479;45.720;11.310;2023-08-17T12:45:49;11.73;;;10.73;;
53594;SDS011;39479;45.720;11.310;2023-08-17T12:48:16;11.32;;;10.32;;
53594;SDS011;39479;45.720;11.310;2023-08-17T12:50:42;11.68;;;10.63;;
53594;SDS011;39479;45.720;11.310;2023-08-17T12:53:08;11.10;;;10.20;;
53594;SDS011;39479;45.720;11.310;2023-08-17T12:55:34;11.43;;;10.35;;
53594;SDS011;39479;45.720;11.310;2023-08-17T12:58:02;10.50;;;9.60;;
53594;SDS011;39479;45.720;11.310;2023-08-17T13:00:28;11.60;;;10.30;;
53594;SDS011;39479;45.720;11.310;2023-08-17T13:02:54;11.45;;;10.43;;
53594;SDS011;39479;45.720;11.310;2023-08-17T13:05:20;11.00;;;9.90;;
53594;SDS011;39479;45.720;11.310;2023-08-17T13:07:46;10.77;;;9.77;;
53594;SDS011;39479;45.720;11.310;2023-08-17T13:10:12;11.68;;;10.48;;
53594;SDS011;39479;45.720;11.310;2023-08-17T13:12:38;10.68;;;9.68;;
53594;SDS011;39479;45.720;11.310;2023-08-17T13:15:04;13.15;;;10.10;;
53594;SDS011;39479;45.720;11.310;2023-08-17T13:17:31;11.15;;;10.10;;
53594;SDS011;39479;45.720;11.310;2023-08-17T13:19:57;10.82;;;9.82;;
53594;SDS011;39479;45.720;11.310;2023-08-17T13:22:23;10.82;;;9.75;;
53594;SDS011;39479;45.720;11.310;2023-08-17T13:24:49;11.48;;;10.52;;
53594;SDS011;39479;45.720;11.310;2023-08-17T13:27:15;11.50;;;10.50;;
53594;SDS011;39479;45.720;11.310;2023-08-17T13:29:41;11.98;;;10.70;;
53594;SDS011;39479;45.720;11.310;2023-08-17T13:32:07;10.88;;;9.98;;
53594;SDS011;39479;45.720;11.310;2023-08-17T13:34:33;11.02;;;10.13;;
53594;SDS011;39479;45.720;11.310;2023-08-17T13:36:59;10.63;;;9.73;;
53594;SDS011;39479;45.720;11.310;2023-08-17T13:39:27;11.77;;;10.75;;
53594;SDS011;39479;45.720;11.310;2023-08-17T13:41:54;11.32;;;10.25;;
53594;SDS011;39479;45.720;11.310;2023-08-17T13:44:20;11.63;;;10.52;;
53594;SDS011;39479;45.720;11.310;2023-08-17T13:46:46;10.90;;;9.98;;
53594;SDS011;39479;45.720;11.310;2023-08-17T13:49:12;11.07;;;10.18;;
53594;SDS011;39479;45.720;11.310;2023-08-17T13:51:38;11.50;;;10.50;;
53594;SDS011;39479;45.720;11.310;2023-08-17T13:54:04;11.77;;;10.68;;
53594;SDS011;39479;45.720;11.310;2023-08-17T13:56:30;11.60;;;10.60;;
53594;SDS011;39479;45.720;11.310;2023-08-17T13:58:56;11.90;;;10.70;;
53594;SDS011;39479;45.720;11.310;2023-08-17T14:01:22;11.75;;;10.75;;
53594;SDS011;39479;45.720;11.310;2023-08-17T14:03:48;11.48;;;10.18;;
53594;SDS011;39479;45.720;11.310;2023-08-17T14:06:14;11.23;;;10.32;;
53594;SDS011;39479;45.720;11.310;2023-08-17T14:08:40;11.73;;;10.63;;
53594;SDS011;39479;45.720;11.310;2023-08-17T14:11:07;12.00;;;10.90;;
53594;SDS011;39479;45.720;11.310;2023-08-17T14:13:34;11.45;;;10.43;;
53594;SDS011;39479;45.720;11.310;2023-08-17T14:16:01;11.93;;;10.82;;
53594;SDS011;39479;45.720;11.310;2023-08-17T14:18:27;17.80;;;12.18;;
53594;SDS011;39479;45.720;11.310;2023-08-17T14:20:53;12.20;;;11.20;;
53594;SDS011;39479;45.720;11.310;2023-08-17T14:23:19;12.48;;;11.13;;
53594;SDS011;39479;45.720;11.310;2023-08-17T14:25:45;12.77;;;11.57;;
53594;SDS011;39479;45.720;11.310;2023-08-17T14:28:11;13.02;;;11.90;;
53594;SDS011;39479;45.720;11.310;2023-08-17T14:30:37;12.73;;;11.63;;
53594;SDS011;39479;45.720;11.310;2023-08-17T14:33:03;12.57;;;11.48;;
53594;SDS011;39479;45.720;11.310;2023-08-17T14:35:29;12.73;;;11.48;;
53594;SDS011;39479;45.720;11.310;2023-08-17T14:37:55;12.57;;;11.30;;